KBZN/BZN METAR and TAF weather

Enter ICAO airport designator
Station Type Date Time Source
KBZN METAR 2021/04/14 20:56 UTC NOAA

KBZN 142056Z 07012G19KT 10SM OVC048 04/M07 A3014 RMK AO2 SLP239 T00441072 56016


Station Type Date Time Source
KBZN Decoded METAR 2021/04/14 20:56 UTC NOAA

BOZEMAN GALLATIN FIELD, MT, United States (KBZN) 45-47N 111-09W 1361M
Apr 14, 2021 - 04:56 PM EDT / 2021.04.14 2056 UTC
Wind: from the ENE (070 degrees) at 14 MPH (12 KT) gusting to 22 MPH (19 KT):0
Visibility: 10 mile(s):0
Sky conditions: overcast
Temperature: 39.9 F (4.4 C)
Dew Point: 19.0 F (-7.2 C)
Relative Humidity: 42%
Pressure (altimeter): 30.14 in. Hg (1020 hPa)
Pressure tendency: 0.05 inches (1.6 hPa) lower than three hours ago
ob: KBZN 142056Z 07012G19KT 10SM OVC048 04/M07 A3014 RMK AO2 SLP239 T00441072 56016
cycle: 21

Station Type Date Time Source
KBZN TAF 2021/04/14 18:54 UTC NOAA

TAF KBZN 141753Z 1418/1524 VRB05KT P6SM SCT030 BKN045
FM151000 VRB05KT P6SM BKN035

Example: see airport list